createdAt,value
2019-04-29T00:00:01.656Z,8.98
2019-04-29T00:02:34.971Z,8.70
2019-04-29T00:05:02.913Z,9.25
2019-04-29T00:09:59.287Z,9.65
2019-04-29T00:12:28.524Z,10.00
2019-04-29T00:15:10.574Z,9.43
2019-04-29T00:17:46.189Z,9.80
2019-04-29T00:20:36.482Z,10.25
2019-04-29T00:25:33.095Z,10.05
2019-04-29T00:28:01.100Z,11.00
2019-04-29T00:30:29.086Z,10.93
2019-04-29T00:32:57.343Z,10.98
2019-04-29T00:35:25.742Z,11.08
2019-04-29T00:38:11.708Z,11.15
2019-04-29T00:41:00.871Z,11.38
2019-04-29T00:43:37.825Z,11.20
2019-04-29T00:46:06.493Z,11.40
2019-04-29T00:48:34.482Z,11.10
2019-04-29T00:53:30.938Z,10.82
2019-04-29T00:56:01.290Z,11.10
2019-04-29T00:58:29.240Z,11.83
2019-04-29T01:00:57.483Z,12.10
2019-04-29T01:03:25.457Z,11.75
2019-04-29T01:05:53.443Z,11.53
2019-04-29T01:08:21.807Z,11.25
2019-04-29T01:13:18.773Z,11.80
2019-04-29T01:15:47.036Z,11.73
2019-04-29T01:18:15.068Z,11.57
2019-04-29T01:20:43.691Z,12.00
2019-04-29T01:23:11.676Z,11.70
2019-04-29T01:25:40.742Z,12.07
2019-04-29T01:28:15.828Z,11.83
2019-04-29T01:31:21.861Z,12.10
2019-04-29T01:33:52.494Z,11.83
2019-04-29T01:39:13.920Z,12.10
2019-04-29T01:42:09.800Z,12.93
2019-04-29T01:44:38.557Z,12.00
2019-04-29T01:49:35.401Z,12.67
2019-04-29T01:52:03.369Z,12.60
2019-04-29T01:54:31.649Z,13.48
2019-04-29T01:56:59.868Z,12.65
2019-04-29T01:59:28.122Z,13.10
2019-04-29T02:01:56.464Z,13.05
2019-04-29T02:04:24.492Z,13.10
2019-04-29T02:06:53.034Z,13.50
2019-04-29T02:09:35.070Z,13.62
2019-04-29T02:14:31.010Z,14.23
2019-04-29T02:16:59.244Z,14.63
2019-04-29T02:19:27.467Z,14.80
2019-04-29T02:22:12.393Z,14.45
2019-04-29T02:24:42.712Z,14.80
2019-04-29T02:27:10.687Z,15.50
2019-04-29T02:32:07.333Z,17.05
2019-04-29T02:34:35.607Z,16.50
2019-04-29T02:37:05.153Z,18.77
2019-04-29T02:39:41.559Z,17.35
2019-04-29T02:42:28.586Z,18.10
2019-04-29T02:44:59.174Z,17.70
2019-04-29T02:47:27.536Z,17.50
2019-04-29T02:49:55.499Z,17.48
2019-04-29T02:54:53.999Z,17.87
2019-04-29T02:57:52.978Z,18.37
2019-04-29T03:00:32.456Z,18.10
2019-04-29T03:03:22.511Z,17.70
2019-04-29T03:08:22.947Z,18.10
2019-04-29T03:10:51.193Z,18.30
2019-04-29T03:13:19.287Z,18.17
2019-04-29T03:15:47.450Z,18.35
2019-04-29T03:18:15.736Z,18.25
2019-04-29T03:20:52.170Z,19.17
2019-04-29T03:23:21.792Z,19.07
2019-04-29T03:25:50.118Z,19.60
2019-04-29T03:28:18.085Z,20.23
2019-04-29T03:30:46.365Z,20.08
2019-04-29T03:33:14.306Z,19.52
2019-04-29T03:35:42.610Z,20.82
2019-04-29T03:40:38.908Z,20.85
2019-04-29T03:43:06.861Z,20.30
2019-04-29T03:48:03.174Z,21.05
2019-04-29T03:50:31.553Z,20.93
2019-04-29T03:53:00.119Z,21.37
2019-04-29T03:55:38.962Z,22.40
2019-04-29T04:00:26.161Z,22.48
2019-04-29T04:03:03.049Z,23.20
2019-04-29T04:05:42.736Z,24.10
2019-04-29T04:08:36.499Z,23.87
2019-04-29T04:11:05.074Z,24.25
2019-04-29T04:16:01.132Z,24.35
2019-04-29T04:18:31.027Z,24.18
2019-04-29T04:20:59.241Z,23.92
2019-04-29T04:23:27.190Z,24.00
2019-04-29T04:25:55.453Z,24.07
2019-04-29T04:28:23.426Z,24.23
2019-04-29T04:30:51.392Z,24.80
2019-04-29T04:35:47.897Z,26.05
2019-04-29T04:38:15.871Z,25.30
2019-04-29T04:40:48.481Z,25.97
2019-04-29T04:43:16.441Z,26.10
2019-04-29T04:48:12.524Z,27.27
2019-04-29T04:50:40.871Z,26.95
2019-04-29T04:55:38.866Z,27.87
2019-04-29T04:58:06.866Z,26.37
2019-04-29T05:00:36.625Z,26.23
2019-04-29T05:03:04.938Z,26.25
2019-04-29T05:05:32.945Z,26.90
2019-04-29T05:08:01.473Z,27.20
2019-04-29T05:10:29.793Z,26.47
2019-04-29T05:12:58.128Z,26.40
2019-04-29T05:15:26.101Z,26.75
2019-04-29T05:17:54.037Z,28.02
2019-04-29T05:20:22.364Z,28.07
2019-04-29T05:22:59.594Z,27.87
2019-04-29T05:25:31.104Z,30.25
2019-04-29T05:27:59.550Z,32.87
2019-04-29T05:32:56.136Z,30.25
2019-04-29T05:35:27.739Z,30.70
2019-04-29T05:38:03.968Z,31.68
2019-04-29T05:40:51.302Z,32.73
2019-04-29T05:43:26.994Z,31.85
2019-04-29T05:48:39.197Z,37.53
2019-04-29T05:51:27.201Z,34.60
2019-04-29T05:56:25.998Z,36.42
2019-04-29T05:58:55.351Z,35.92
2019-04-29T06:01:26.048Z,36.38
2019-04-29T06:03:54.041Z,35.35
2019-04-29T06:06:22.368Z,35.28
2019-04-29T06:08:50.657Z,32.55
2019-04-29T06:13:47.091Z,31.40
2019-04-29T06:16:20.572Z,30.30
2019-04-29T06:18:45.238Z,29.67
2019-04-29T06:21:13.578Z,28.73
2019-04-29T06:23:41.557Z,28.00
2019-04-29T06:26:09.558Z,28.10
2019-04-29T06:28:37.570Z,27.30
2019-04-29T06:31:05.812Z,27.90
2019-04-29T06:33:33.780Z,26.93
2019-04-29T06:36:02.101Z,27.50
2019-04-29T06:40:58.039Z,27.43
2019-04-29T06:43:28.767Z,26.35
2019-04-29T06:45:55.682Z,26.17
2019-04-29T06:48:23.624Z,25.45
2019-04-29T06:50:51.872Z,25.00
2019-04-29T06:53:21.435Z,24.40
2019-04-29T06:55:50.070Z,24.60
2019-04-29T06:58:19.137Z,24.80
2019-04-29T07:00:47.076Z,25.40
2019-04-29T07:03:15.039Z,24.52
2019-04-29T07:08:11.335Z,21.95
2019-04-29T07:10:39.690Z,21.47
2019-04-29T07:13:07.918Z,20.52
2019-04-29T07:15:36.495Z,21.10
2019-04-29T07:18:04.543Z,20.70
2019-04-29T07:20:36.750Z,19.15
2019-04-29T07:23:02.510Z,18.98
2019-04-29T07:25:30.848Z,20.60
2019-04-29T07:27:59.194Z,20.43
2019-04-29T07:30:29.252Z,20.60
2019-04-29T07:32:57.673Z,19.85
2019-04-29T07:35:25.919Z,17.60
2019-04-29T07:37:53.917Z,16.00
2019-04-29T07:42:50.430Z,11.10
2019-04-29T07:45:50.353Z,10.60
2019-04-29T07:50:46.883Z,9.00
2019-04-29T07:53:15.253Z,8.90
2019-04-29T07:55:43.239Z,8.45
2019-04-29T07:58:11.551Z,7.55
2019-04-29T08:00:39.585Z,6.58
2019-04-29T08:05:36.431Z,6.40
2019-04-29T08:08:05.147Z,7.25
2019-04-29T08:13:01.646Z,9.08
2019-04-29T08:15:31.887Z,10.88
2019-04-29T08:18:06.467Z,8.18
2019-04-29T08:22:58.428Z,7.90
2019-04-29T08:25:27.276Z,6.70
2019-04-29T08:27:55.230Z,7.12
2019-04-29T08:30:23.513Z,7.30
2019-04-29T08:32:51.786Z,6.85
2019-04-29T08:35:20.115Z,7.30
2019-04-29T08:40:16.925Z,6.30
2019-04-29T08:42:50.004Z,6.30
2019-04-29T08:48:13.796Z,5.60
2019-04-29T08:50:42.051Z,6.45
2019-04-29T08:53:10.041Z,7.30
2019-04-29T08:58:11.058Z,11.22
2019-04-29T09:00:36.948Z,10.13
2019-04-29T09:03:05.519Z,8.30
2019-04-29T09:05:33.804Z,7.60
2019-04-29T09:08:01.776Z,8.38
2019-04-29T09:10:33.037Z,7.70
2019-04-29T09:15:28.028Z,6.83
2019-04-29T09:17:56.013Z,6.33
2019-04-29T09:20:23.983Z,6.50
2019-04-29T09:22:56.846Z,5.75
2019-04-29T09:25:43.835Z,6.00
2019-04-29T09:28:17.863Z,5.70
2019-04-29T09:33:13.115Z,5.30
2019-04-29T09:35:41.455Z,5.43
2019-04-29T09:38:11.071Z,5.70
2019-04-29T09:40:45.782Z,6.05
2019-04-29T09:43:32.769Z,6.97
2019-04-29T09:46:09.073Z,6.20
2019-04-29T09:48:37.381Z,6.85
2019-04-29T09:51:16.647Z,6.00
2019-04-29T09:53:35.323Z,5.50
2019-04-29T09:56:03.679Z,6.15
2019-04-29T09:58:32.121Z,5.75
2019-04-29T10:01:22.820Z,6.58
2019-04-29T10:04:03.063Z,5.60
2019-04-29T10:06:34.044Z,5.80
2019-04-29T10:09:02.653Z,5.92
2019-04-29T10:13:58.912Z,5.92
2019-04-29T10:19:31.390Z,6.05
2019-04-29T10:21:59.390Z,8.53
2019-04-29T10:24:27.503Z,7.00
2019-04-29T10:26:56.475Z,7.45
2019-04-29T10:29:26.210Z,6.42
2019-04-29T10:31:54.620Z,5.90
2019-04-29T10:34:27.046Z,5.90
2019-04-29T10:36:54.348Z,5.78
2019-04-29T10:40:10.554Z,5.90
2019-04-29T10:42:48.636Z,5.83
2019-04-29T10:45:30.220Z,6.10
2019-04-29T10:48:16.101Z,6.10
2019-04-29T10:50:47.148Z,6.30
2019-04-29T10:55:42.965Z,7.20
2019-04-29T10:58:10.912Z,6.73
2019-04-29T11:01:15.298Z,6.67
2019-04-29T11:03:44.273Z,6.70
2019-04-29T11:06:12.269Z,6.40
2019-04-29T11:11:22.681Z,7.97
2019-04-29T11:13:49.904Z,10.70
2019-04-29T11:16:14.921Z,11.70
2019-04-29T11:18:43.194Z,11.20
2019-04-29T11:21:11.561Z,9.85
2019-04-29T11:23:54.897Z,9.00
2019-04-29T11:26:44.587Z,8.98
2019-04-29T11:29:11.229Z,7.37
2019-04-29T11:31:39.635Z,8.35
2019-04-29T11:34:23.598Z,7.30
2019-04-29T11:36:51.575Z,8.20
2019-04-29T11:41:49.997Z,7.17
2019-04-29T11:44:17.438Z,7.33
2019-04-29T11:46:49.114Z,7.40
2019-04-29T11:49:16.228Z,7.10
2019-04-29T11:52:07.953Z,7.40
2019-04-29T11:54:18.042Z,7.23
2019-04-29T11:56:44.790Z,7.60
2019-04-29T11:59:41.342Z,7.15
2019-04-29T12:02:45.208Z,8.35
2019-04-29T12:05:29.849Z,7.50
2019-04-29T12:07:57.843Z,7.58
2019-04-29T12:10:25.769Z,7.80
2019-04-29T12:12:53.724Z,7.28
2019-04-29T12:15:38.217Z,7.65
2019-04-29T12:18:15.922Z,7.55
2019-04-29T12:20:56.852Z,7.65
2019-04-29T12:23:24.804Z,7.72
2019-04-29T12:25:53.130Z,7.60
2019-04-29T12:28:21.389Z,7.90
2019-04-29T12:30:51.182Z,8.48
2019-04-29T12:33:44.346Z,8.25
2019-04-29T12:36:16.258Z,8.50
2019-04-29T12:39:10.855Z,8.83
2019-04-29T12:42:00.623Z,8.13
2019-04-29T12:44:35.393Z,7.80
2019-04-29T12:47:26.707Z,8.03
2019-04-29T12:49:52.270Z,8.70
2019-04-29T12:52:20.442Z,7.97
2019-04-29T12:54:48.723Z,7.30
2019-04-29T12:57:18.765Z,7.12
2019-04-29T12:59:46.662Z,6.45
2019-04-29T13:02:55.498Z,6.20
2019-04-29T13:05:57.480Z,6.00
2019-04-29T13:08:36.432Z,6.60
2019-04-29T13:11:05.950Z,6.50
2019-04-29T13:13:33.893Z,6.40
2019-04-29T13:16:24.194Z,6.55
2019-04-29T13:19:10.807Z,6.20
2019-04-29T13:24:12.873Z,6.42
2019-04-29T13:26:28.848Z,6.90
2019-04-29T13:29:01.461Z,7.17
2019-04-29T13:31:38.207Z,5.67
2019-04-29T13:34:04.754Z,5.40
2019-04-29T13:36:27.780Z,5.40
2019-04-29T13:38:56.192Z,5.00
2019-04-29T13:41:26.011Z,5.20
2019-04-29T13:44:03.945Z,5.30
2019-04-29T13:49:14.616Z,5.90
2019-04-29T13:51:42.662Z,4.73
2019-04-29T13:54:14.754Z,5.70
2019-04-29T13:56:55.485Z,4.90
2019-04-29T13:59:29.659Z,4.30
2019-04-29T14:02:08.182Z,4.40
2019-04-29T14:04:40.270Z,7.62
2019-04-29T14:07:08.242Z,25.43
2019-04-29T14:09:39.286Z,4.80
2019-04-29T14:12:46.452Z,4.30
2019-04-29T14:14:36.861Z,4.30
2019-04-29T14:17:24.284Z,4.50
2019-04-29T14:19:40.808Z,4.40
2019-04-29T14:24:33.471Z,4.30
2019-04-29T14:27:01.730Z,4.67
2019-04-29T14:29:30.393Z,5.90
2019-04-29T14:32:01.226Z,5.20
2019-04-29T14:34:48.717Z,4.60
2019-04-29T14:37:21.682Z,4.47
2019-04-29T14:39:46.622Z,4.87
2019-04-29T14:42:30.171Z,5.03
2019-04-29T14:45:13.358Z,4.10
2019-04-29T14:50:20.630Z,3.90
2019-04-29T14:52:49.382Z,3.98
2019-04-29T14:57:45.511Z,3.80
2019-04-29T15:00:24.030Z,3.60
2019-04-29T15:02:55.800Z,3.70
2019-04-29T15:05:22.286Z,7.25
2019-04-29T15:10:18.826Z,4.40
2019-04-29T15:13:19.787Z,3.80
2019-04-29T15:15:47.034Z,3.90
2019-04-29T15:18:47.457Z,3.67
2019-04-29T15:21:32.790Z,3.65
2019-04-29T15:23:55.627Z,3.60
2019-04-29T15:26:23.937Z,3.60
2019-04-29T15:31:23.622Z,4.03
2019-04-29T15:33:51.812Z,4.60
2019-04-29T15:36:20.464Z,4.10
2019-04-29T15:39:07.707Z,3.77
2019-04-29T15:41:19.270Z,4.45
2019-04-29T15:43:48.339Z,4.20
2019-04-29T15:46:16.613Z,4.53
2019-04-29T15:48:45.266Z,4.12
2019-04-29T15:51:14.803Z,4.33
2019-04-29T15:53:42.790Z,4.30
2019-04-29T15:56:27.829Z,4.25
2019-04-29T15:58:41.326Z,4.25
2019-04-29T16:01:18.134Z,4.08
2019-04-29T16:03:45.108Z,4.10
2019-04-29T16:06:33.940Z,4.45
2019-04-29T16:09:23.757Z,4.90
2019-04-29T16:12:13.936Z,5.55
2019-04-29T16:17:04.690Z,5.42
2019-04-29T16:19:33.065Z,5.10
2019-04-29T16:24:37.609Z,5.30
2019-04-29T16:27:01.439Z,5.97
2019-04-29T16:29:30.025Z,5.15
2019-04-29T16:32:02.622Z,5.65
2019-04-29T16:34:27.885Z,5.83
2019-04-29T16:36:56.438Z,5.15
2019-04-29T16:39:24.481Z,4.80
2019-04-29T16:42:11.445Z,5.45
2019-04-29T16:44:40.153Z,7.55
2019-04-29T16:47:13.095Z,6.80
2019-04-29T16:49:40.833Z,5.80
2019-04-29T16:52:08.846Z,8.00
2019-04-29T16:57:05.526Z,5.33
2019-04-29T16:59:33.773Z,5.10
2019-04-29T17:04:29.990Z,5.20
2019-04-29T17:07:12.489Z,5.20
2019-04-29T17:09:39.603Z,4.97
2019-04-29T17:12:07.986Z,4.80
2019-04-29T17:15:01.193Z,5.00
2019-04-29T17:17:07.946Z,4.95
2019-04-29T17:19:35.911Z,5.00
2019-04-29T17:22:24.880Z,4.40
2019-04-29T17:24:34.826Z,5.25
2019-04-29T17:27:42.343Z,4.60
2019-04-29T17:30:24.503Z,5.22
2019-04-29T17:33:12.492Z,7.20
2019-04-29T17:35:46.968Z,5.57
2019-04-29T17:40:38.717Z,6.90
2019-04-29T17:43:19.668Z,7.10
2019-04-29T17:45:59.747Z,7.53
2019-04-29T17:48:42.591Z,6.78
2019-04-29T17:51:10.940Z,7.50
2019-04-29T17:53:43.677Z,7.90
2019-04-29T17:56:30.677Z,7.03
2019-04-29T17:59:05.943Z,7.42
2019-04-29T18:01:46.950Z,6.92
2019-04-29T18:04:43.089Z,6.75
2019-04-29T18:07:28.520Z,6.97
2019-04-29T18:10:06.761Z,8.15
2019-04-29T18:12:40.943Z,7.37
2019-04-29T18:15:06.010Z,9.13
2019-04-29T18:20:30.716Z,7.80
2019-04-29T18:23:11.044Z,7.40
2019-04-29T18:25:50.456Z,7.50
2019-04-29T18:30:49.737Z,7.70
2019-04-29T18:33:18.933Z,7.28
2019-04-29T18:35:46.809Z,7.15
2019-04-29T18:38:14.822Z,7.50
2019-04-29T18:40:44.796Z,8.10
2019-04-29T18:48:16.509Z,7.78
2019-04-29T18:50:39.266Z,7.10
2019-04-29T18:53:07.856Z,7.70
2019-04-29T18:55:35.909Z,8.03
2019-04-29T18:58:05.712Z,11.93
2019-04-29T19:00:34.888Z,11.70
2019-04-29T19:03:03.277Z,8.03
2019-04-29T19:08:14.017Z,7.62
2019-04-29T19:10:37.870Z,10.48
2019-04-29T19:13:12.610Z,11.70
2019-04-29T19:15:39.884Z,10.10
2019-04-29T19:18:07.852Z,9.98
2019-04-29T19:20:35.944Z,9.20
2019-04-29T19:23:08.252Z,10.03
2019-04-29T19:25:35.313Z,10.90
2019-04-29T19:28:12.774Z,9.28
2019-04-29T19:30:35.507Z,9.50
2019-04-29T19:33:02.941Z,8.50
2019-04-29T19:35:34.692Z,9.10
2019-04-29T19:38:01.108Z,7.95
2019-04-29T19:40:30.629Z,8.00
2019-04-29T19:42:59.301Z,8.05
2019-04-29T19:45:27.248Z,7.83
2019-04-29T19:47:55.779Z,7.20
2019-04-29T19:50:25.680Z,7.58
2019-04-29T19:52:55.461Z,7.40
2019-04-29T19:55:25.237Z,7.60
2019-04-29T19:57:55.820Z,7.80
2019-04-29T20:00:29.426Z,7.75
2019-04-29T20:02:53.827Z,7.70
2019-04-29T20:05:46.013Z,6.90
2019-04-29T20:08:21.607Z,7.80
2019-04-29T20:10:49.559Z,7.33
2019-04-29T20:13:13.932Z,7.70
2019-04-29T20:16:10.011Z,8.00
2019-04-29T20:18:58.634Z,7.53
2019-04-29T20:21:25.120Z,7.40
2019-04-29T20:23:53.064Z,7.75
2019-04-29T20:26:28.859Z,7.53
2019-04-29T20:31:22.045Z,7.30
2019-04-29T20:33:48.581Z,7.90
2019-04-29T20:36:28.844Z,8.10
2019-04-29T20:38:46.720Z,7.47
2019-04-29T20:41:20.890Z,7.37
2019-04-29T20:43:46.162Z,7.43
2019-04-29T20:46:15.947Z,7.10
2019-04-29T20:48:45.605Z,6.67
2019-04-29T20:51:16.467Z,6.60
2019-04-29T20:53:48.221Z,6.30
2019-04-29T20:56:23.612Z,6.80
2019-04-29T20:58:46.849Z,6.60
2019-04-29T21:01:22.637Z,6.30
2019-04-29T21:03:53.887Z,6.50
2019-04-29T21:06:20.721Z,7.08
2019-04-29T21:08:51.109Z,7.08
2019-04-29T21:11:25.994Z,6.70
2019-04-29T21:14:02.129Z,6.60
2019-04-29T21:19:08.811Z,6.62
2019-04-29T21:21:36.777Z,6.58
2019-04-29T21:24:13.620Z,6.45
2019-04-29T21:26:37.892Z,6.55
2019-04-29T21:29:06.475Z,7.00
2019-04-29T21:31:35.555Z,6.60
2019-04-29T21:34:05.447Z,6.50
2019-04-29T21:39:51.576Z,6.90
2019-04-29T21:45:08.886Z,6.67
2019-04-29T21:47:44.307Z,6.50
2019-04-29T21:52:35.392Z,5.70
2019-04-29T21:55:05.252Z,5.40
2019-04-29T21:57:33.270Z,5.50
2019-04-29T22:00:01.485Z,5.78
2019-04-29T22:02:29.775Z,5.90
2019-04-29T22:04:58.107Z,5.80
2019-04-29T22:07:26.063Z,5.90
2019-04-29T22:12:22.070Z,5.90
2019-04-29T22:14:53.921Z,5.92
2019-04-29T22:17:20.956Z,6.20
2019-04-29T22:19:48.881Z,6.20
2019-04-29T22:22:17.007Z,6.45
2019-04-29T22:24:45.857Z,6.22
2019-04-29T22:27:16.273Z,6.47
2019-04-29T22:29:45.400Z,6.55
2019-04-29T22:32:19.323Z,6.30
2019-04-29T22:34:49.473Z,6.10
2019-04-29T22:37:17.133Z,6.65
2019-04-29T22:39:45.097Z,7.22
2019-04-29T22:42:23.565Z,6.50
2019-04-29T22:44:52.575Z,6.72
2019-04-29T22:47:23.934Z,6.60
2019-04-29T22:49:50.013Z,6.40
2019-04-29T22:52:17.962Z,6.80
2019-04-29T22:54:46.219Z,7.30
2019-04-29T22:57:15.678Z,7.20
2019-04-29T22:59:44.935Z,6.70
2019-04-29T23:02:15.615Z,7.30
2019-04-29T23:04:49.091Z,6.90
2019-04-29T23:09:46.387Z,7.10
2019-04-29T23:12:16.998Z,7.47
2019-04-29T23:14:44.470Z,7.20
2019-04-29T23:17:12.187Z,7.20
2019-04-29T23:19:42.268Z,6.75
2019-04-29T23:22:38.468Z,7.33
2019-04-29T23:25:26.603Z,7.25
2019-04-29T23:32:56.138Z,8.83
2019-04-29T23:35:25.106Z,8.70
2019-04-29T23:40:22.254Z,8.00
2019-04-29T23:42:50.212Z,8.70
2019-04-29T23:45:22.319Z,8.97
2019-04-29T23:47:50.660Z,9.05
2019-04-29T23:50:20.042Z,8.35
2019-04-29T23:52:51.760Z,7.80
2019-04-29T23:55:20.393Z,8.40
2019-04-29T23:58:06.824Z,8.20
